sensor_id;sensor_type;location;lat;lon;timestamp;temperature;humidity
6270;DHT22;3168;51.684;6.954;2023-09-18T00:01:25;18.90;41.00
6270;DHT22;3168;51.684;6.954;2023-09-18T00:03:51;18.90;33.70
6270;DHT22;3168;51.684;6.954;2023-09-18T00:06:17;18.90;28.80
6270;DHT22;3168;51.684;6.954;2023-09-18T00:08:43;18.90;26.00
6270;DHT22;3168;51.684;6.954;2023-09-18T00:11:12;18.90;23.60
6270;DHT22;3168;51.684;6.954;2023-09-18T00:13:38;18.90;24.30
6270;DHT22;3168;51.684;6.954;2023-09-18T00:16:04;18.90;22.50
6270;DHT22;3168;51.684;6.954;2023-09-18T00:18:30;19.00;23.80
6270;DHT22;3168;51.684;6.954;2023-09-18T00:20:56;19.10;27.90
6270;DHT22;3168;51.684;6.954;2023-09-18T00:23:21;19.10;20.90
6270;DHT22;3168;51.684;6.954;2023-09-18T00:25:47;19.00;8.40
6270;DHT22;3168;51.684;6.954;2023-09-18T00:28:13;19.00;7.80
6270;DHT22;3168;51.684;6.954;2023-09-18T00:30:42;19.00;4.50
6270;DHT22;3168;51.684;6.954;2023-09-18T00:33:05;19.00;5.00
6270;DHT22;3168;51.684;6.954;2023-09-18T00:35:30;19.00;1.00
6270;DHT22;3168;51.684;6.954;2023-09-18T00:37:56;18.90;1.00
6270;DHT22;3168;51.684;6.954;2023-09-18T00:40:22;18.90;2.80
6270;DHT22;3168;51.684;6.954;2023-09-18T00:42:48;18.90;10.50
6270;DHT22;3168;51.684;6.954;2023-09-18T00:45:14;18.90;5.40
6270;DHT22;3168;51.684;6.954;2023-09-18T00:47:40;18.90;8.10
6270;DHT22;3168;51.684;6.954;2023-09-18T00:50:06;18.90;7.20
6270;DHT22;3168;51.684;6.954;2023-09-18T00:52:32;18.90;9.60
6270;DHT22;3168;51.684;6.954;2023-09-18T00:54:59;18.90;9.00
6270;DHT22;3168;51.684;6.954;2023-09-18T00:57:25;18.90;5.80
6270;DHT22;3168;51.684;6.954;2023-09-18T00:59:51;18.90;6.00
6270;DHT22;3168;51.684;6.954;2023-09-18T01:02:17;18.90;5.80
6270;DHT22;3168;51.684;6.954;2023-09-18T01:04:44;18.90;2.90
6270;DHT22;3168;51.684;6.954;2023-09-18T01:07:10;18.90;1.00
6270;DHT22;3168;51.684;6.954;2023-09-18T01:09:36;18.90;6.30
6270;DHT22;3168;51.684;6.954;2023-09-18T01:12:23;18.90;1.40
6270;DHT22;3168;51.684;6.954;2023-09-18T01:15:11;18.90;4.30
6270;DHT22;3168;51.684;6.954;2023-09-18T01:17:34;18.90;1.70
6270;DHT22;3168;51.684;6.954;2023-09-18T01:20:00;18.90;1.00
6270;DHT22;3168;51.684;6.954;2023-09-18T01:22:28;18.90;1.00
6270;DHT22;3168;51.684;6.954;2023-09-18T01:24:51;19.00;1.00
6270;DHT22;3168;51.684;6.954;2023-09-18T01:27:17;19.00;1.00
6270;DHT22;3168;51.684;6.954;2023-09-18T01:29:45;19.00;1.00
6270;DHT22;3168;51.684;6.954;2023-09-18T01:32:10;18.90;1.00
6270;DHT22;3168;51.684;6.954;2023-09-18T01:34:39;18.90;1.00
6270;DHT22;3168;51.684;6.954;2023-09-18T01:37:03;18.90;1.00
6270;DHT22;3168;51.684;6.954;2023-09-18T01:39:29;18.90;1.00
6270;DHT22;3168;51.684;6.954;2023-09-18T01:41:55;18.90;1.00
6270;DHT22;3168;51.684;6.954;2023-09-18T01:44:21;19.00;1.00
6270;DHT22;3168;51.684;6.954;2023-09-18T01:46:47;19.00;1.00
6270;DHT22;3168;51.684;6.954;2023-09-18T01:49:12;19.10;1.00
6270;DHT22;3168;51.684;6.954;2023-09-18T01:51:38;19.10;1.00
6270;DHT22;3168;51.684;6.954;2023-09-18T01:54:04;19.20;1.00
6270;DHT22;3168;51.684;6.954;2023-09-18T01:56:30;19.20;1.00
6270;DHT22;3168;51.684;6.954;2023-09-18T01:58:56;19.20;1.00
6270;DHT22;3168;51.684;6.954;2023-09-18T02:01:22;19.20;1.00
6270;DHT22;3168;51.684;6.954;2023-09-18T02:03:47;19.10;1.00
6270;DHT22;3168;51.684;6.954;2023-09-18T02:06:14;19.00;1.00
6270;DHT22;3168;51.684;6.954;2023-09-18T02:08:40;19.00;1.00
6270;DHT22;3168;51.684;6.954;2023-09-18T02:11:05;19.10;1.00
6270;DHT22;3168;51.684;6.954;2023-09-18T02:13:31;19.00;1.00
6270;DHT22;3168;51.684;6.954;2023-09-18T02:15:57;19.00;1.00
6270;DHT22;3168;51.684;6.954;2023-09-18T02:18:23;19.10;1.00
6270;DHT22;3168;51.684;6.954;2023-09-18T02:20:49;19.10;1.00
6270;DHT22;3168;51.684;6.954;2023-09-18T02:23:15;19.10;1.00
6270;DHT22;3168;51.684;6.954;2023-09-18T02:25:41;19.20;1.00
6270;DHT22;3168;51.684;6.954;2023-09-18T02:28:07;19.20;1.00
6270;DHT22;3168;51.684;6.954;2023-09-18T02:30:33;19.20;1.00
6270;DHT22;3168;51.684;6.954;2023-09-18T02:32:59;19.20;1.00
6270;DHT22;3168;51.684;6.954;2023-09-18T02:35:25;19.20;1.00
6270;DHT22;3168;51.684;6.954;2023-09-18T02:37:51;19.20;1.00
6270;DHT22;3168;51.684;6.954;2023-09-18T02:40:17;19.20;1.00
6270;DHT22;3168;51.684;6.954;2023-09-18T02:42:43;19.20;1.00
6270;DHT22;3168;51.684;6.954;2023-09-18T02:45:09;19.20;1.00
6270;DHT22;3168;51.684;6.954;2023-09-18T02:47:35;19.20;1.00
6270;DHT22;3168;51.684;6.954;2023-09-18T02:50:01;19.20;1.00
6270;DHT22;3168;51.684;6.954;2023-09-18T02:52:27;19.20;1.00
6270;DHT22;3168;51.684;6.954;2023-09-18T02:54:53;19.30;1.00
6270;DHT22;3168;51.684;6.954;2023-09-18T02:57:19;19.20;1.00
6270;DHT22;3168;51.684;6.954;2023-09-18T02:59:44;19.20;1.00
6270;DHT22;3168;51.684;6.954;2023-09-18T03:02:10;19.20;1.00
6270;DHT22;3168;51.684;6.954;2023-09-18T03:04:37;19.10;1.00
6270;DHT22;3168;51.684;6.954;2023-09-18T03:07:03;19.10;1.00
6270;DHT22;3168;51.684;6.954;2023-09-18T03:09:29;19.10;1.00
6270;DHT22;3168;51.684;6.954;2023-09-18T03:12:00;19.20;1.00
6270;DHT22;3168;51.684;6.954;2023-09-18T03:14:26;19.20;1.00
6270;DHT22;3168;51.684;6.954;2023-09-18T03:16:52;19.20;1.00
6270;DHT22;3168;51.684;6.954;2023-09-18T03:19:18;19.20;1.00
6270;DHT22;3168;51.684;6.954;2023-09-18T03:21:44;19.20;1.00
6270;DHT22;3168;51.684;6.954;2023-09-18T03:24:10;19.20;1.00
6270;DHT22;3168;51.684;6.954;2023-09-18T03:26:36;19.20;1.00
6270;DHT22;3168;51.684;6.954;2023-09-18T03:29:01;19.30;1.00
6270;DHT22;3168;51.684;6.954;2023-09-18T03:31:27;19.30;1.00
6270;DHT22;3168;51.684;6.954;2023-09-18T03:33:53;19.30;1.00
6270;DHT22;3168;51.684;6.954;2023-09-18T03:36:21;19.40;1.00
6270;DHT22;3168;51.684;6.954;2023-09-18T03:38:46;19.30;1.00
6270;DHT22;3168;51.684;6.954;2023-09-18T03:41:12;19.50;1.00
6270;DHT22;3168;51.684;6.954;2023-09-18T03:43:38;19.50;1.00
6270;DHT22;3168;51.684;6.954;2023-09-18T03:46:04;19.60;1.00
6270;DHT22;3168;51.684;6.954;2023-09-18T03:48:29;19.60;1.00
6270;DHT22;3168;51.684;6.954;2023-09-18T03:50:56;19.60;1.00
6270;DHT22;3168;51.684;6.954;2023-09-18T03:53:21;19.60;1.00
6270;DHT22;3168;51.684;6.954;2023-09-18T03:55:48;19.70;1.00
6270;DHT22;3168;51.684;6.954;2023-09-18T03:58:12;19.80;1.00
6270;DHT22;3168;51.684;6.954;2023-09-18T04:00:38;19.80;1.00
6270;DHT22;3168;51.684;6.954;2023-09-18T04:03:04;19.70;1.00
6270;DHT22;3168;51.684;6.954;2023-09-18T04:05:30;19.80;1.00
6270;DHT22;3168;51.684;6.954;2023-09-18T04:07:56;19.80;1.00
6270;DHT22;3168;51.684;6.954;2023-09-18T04:10:21;19.80;1.00
6270;DHT22;3168;51.684;6.954;2023-09-18T04:12:49;19.80;1.00
6270;DHT22;3168;51.684;6.954;2023-09-18T04:15:14;19.80;1.00
6270;DHT22;3168;51.684;6.954;2023-09-18T04:17:40;19.80;1.00
6270;DHT22;3168;51.684;6.954;2023-09-18T04:20:06;19.80;1.00
6270;DHT22;3168;51.684;6.954;2023-09-18T04:22:32;19.80;1.00
6270;DHT22;3168;51.684;6.954;2023-09-18T04:24:58;19.80;1.00
6270;DHT22;3168;51.684;6.954;2023-09-18T04:27:24;20.00;1.00
6270;DHT22;3168;51.684;6.954;2023-09-18T04:29:50;20.10;1.00
6270;DHT22;3168;51.684;6.954;2023-09-18T04:32:16;19.80;1.00
6270;DHT22;3168;51.684;6.954;2023-09-18T04:34:41;19.70;1.00
6270;DHT22;3168;51.684;6.954;2023-09-18T04:37:07;19.50;1.00
6270;DHT22;3168;51.684;6.954;2023-09-18T04:39:34;19.20;1.00
6270;DHT22;3168;51.684;6.954;2023-09-18T04:42:00;19.20;1.00
6270;DHT22;3168;51.684;6.954;2023-09-18T04:44:25;19.20;1.00
6270;DHT22;3168;51.684;6.954;2023-09-18T04:46:51;19.20;1.00
6270;DHT22;3168;51.684;6.954;2023-09-18T04:49:17;19.20;1.00
6270;DHT22;3168;51.684;6.954;2023-09-18T04:51:43;19.40;1.00
6270;DHT22;3168;51.684;6.954;2023-09-18T04:54:09;19.40;1.00
6270;DHT22;3168;51.684;6.954;2023-09-18T04:56:35;19.40;1.00
6270;DHT22;3168;51.684;6.954;2023-09-18T04:59:01;19.60;1.00
6270;DHT22;3168;51.684;6.954;2023-09-18T05:01:26;19.70;1.00
6270;DHT22;3168;51.684;6.954;2023-09-18T05:03:52;20.00;1.00
6270;DHT22;3168;51.684;6.954;2023-09-18T05:06:18;20.10;1.00
6270;DHT22;3168;51.684;6.954;2023-09-18T05:08:44;20.20;1.00
6270;DHT22;3168;51.684;6.954;2023-09-18T05:11:09;20.40;1.00
6270;DHT22;3168;51.684;6.954;2023-09-18T05:13:35;20.40;1.00
6270;DHT22;3168;51.684;6.954;2023-09-18T05:16:01;20.40;1.00
6270;DHT22;3168;51.684;6.954;2023-09-18T05:18:27;20.40;1.00
6270;DHT22;3168;51.684;6.954;2023-09-18T05:20:53;20.40;1.00
6270;DHT22;3168;51.684;6.954;2023-09-18T05:23:18;20.40;1.00
6270;DHT22;3168;51.684;6.954;2023-09-18T05:25:44;20.40;1.00
6270;DHT22;3168;51.684;6.954;2023-09-18T05:28:10;20.50;1.00
6270;DHT22;3168;51.684;6.954;2023-09-18T05:30:36;20.50;1.00
6270;DHT22;3168;51.684;6.954;2023-09-18T05:33:02;20.50;1.00
6270;DHT22;3168;51.684;6.954;2023-09-18T05:35:32;20.50;1.00
6270;DHT22;3168;51.684;6.954;2023-09-18T05:37:57;20.50;1.00
6270;DHT22;3168;51.684;6.954;2023-09-18T05:40:23;20.50;1.00
6270;DHT22;3168;51.684;6.954;2023-09-18T05:42:49;20.50;1.00
6270;DHT22;3168;51.684;6.954;2023-09-18T05:45:15;20.50;1.00
6270;DHT22;3168;51.684;6.954;2023-09-18T05:47:41;20.50;1.00
6270;DHT22;3168;51.684;6.954;2023-09-18T05:50:08;20.40;1.00
6270;DHT22;3168;51.684;6.954;2023-09-18T05:52:34;20.40;1.00
6270;DHT22;3168;51.684;6.954;2023-09-18T05:55:00;20.40;1.00
6270;DHT22;3168;51.684;6.954;2023-09-18T05:57:26;20.30;1.00
6270;DHT22;3168;51.684;6.954;2023-09-18T05:59:55;20.30;1.00
6270;DHT22;3168;51.684;6.954;2023-09-18T06:02:20;20.40;1.00
6270;DHT22;3168;51.684;6.954;2023-09-18T06:04:46;20.40;1.00
6270;DHT22;3168;51.684;6.954;2023-09-18T06:07:12;20.40;1.00
6270;DHT22;3168;51.684;6.954;2023-09-18T06:09:38;20.40;1.00
6270;DHT22;3168;51.684;6.954;2023-09-18T06:12:04;20.40;1.00
6270;DHT22;3168;51.684;6.954;2023-09-18T06:14:30;20.40;1.00
6270;DHT22;3168;51.684;6.954;2023-09-18T06:16:56;20.40;1.00
6270;DHT22;3168;51.684;6.954;2023-09-18T06:19:22;20.40;1.00
6270;DHT22;3168;51.684;6.954;2023-09-18T06:21:48;20.40;1.00
6270;DHT22;3168;51.684;6.954;2023-09-18T06:24:14;20.40;1.00
6270;DHT22;3168;51.684;6.954;2023-09-18T06:26:40;20.30;1.00
6270;DHT22;3168;51.684;6.954;2023-09-18T06:29:06;20.30;1.00
6270;DHT22;3168;51.684;6.954;2023-09-18T06:31:32;20.30;1.00
6270;DHT22;3168;51.684;6.954;2023-09-18T06:33:57;20.40;1.00
6270;DHT22;3168;51.684;6.954;2023-09-18T06:36:23;20.30;1.00
6270;DHT22;3168;51.684;6.954;2023-09-18T06:38:49;20.40;1.00
6270;DHT22;3168;51.684;6.954;2023-09-18T06:41:15;20.50;1.00
6270;DHT22;3168;51.684;6.954;2023-09-18T06:43:40;20.50;1.00
6270;DHT22;3168;51.684;6.954;2023-09-18T06:46:07;20.40;1.00
6270;DHT22;3168;51.684;6.954;2023-09-18T06:48:32;20.40;1.00
6270;DHT22;3168;51.684;6.954;2023-09-18T06:50:58;20.50;1.00
6270;DHT22;3168;51.684;6.954;2023-09-18T06:53:24;20.40;1.00
6270;DHT22;3168;51.684;6.954;2023-09-18T06:55:49;20.50;1.00
6270;DHT22;3168;51.684;6.954;2023-09-18T06:58:15;20.40;1.00
6270;DHT22;3168;51.684;6.954;2023-09-18T07:00:41;20.50;1.00
6270;DHT22;3168;51.684;6.954;2023-09-18T07:03:07;20.60;1.00
6270;DHT22;3168;51.684;6.954;2023-09-18T07:05:32;20.60;1.00
6270;DHT22;3168;51.684;6.954;2023-09-18T07:07:58;20.60;1.00
6270;DHT22;3168;51.684;6.954;2023-09-18T07:10:25;20.60;1.00
6270;DHT22;3168;51.684;6.954;2023-09-18T07:12:51;20.60;1.00
6270;DHT22;3168;51.684;6.954;2023-09-18T07:15:16;20.60;1.00
6270;DHT22;3168;51.684;6.954;2023-09-18T07:17:42;20.70;1.00
6270;DHT22;3168;51.684;6.954;2023-09-18T07:20:10;20.70;1.00
6270;DHT22;3168;51.684;6.954;2023-09-18T07:22:36;20.80;1.00
6270;DHT22;3168;51.684;6.954;2023-09-18T07:25:02;20.80;1.00
6270;DHT22;3168;51.684;6.954;2023-09-18T07:27:28;20.90;1.00
6270;DHT22;3168;51.684;6.954;2023-09-18T07:29:55;21.00;1.00
6270;DHT22;3168;51.684;6.954;2023-09-18T07:32:21;21.00;1.00
6270;DHT22;3168;51.684;6.954;2023-09-18T07:34:47;21.00;1.00
6270;DHT22;3168;51.684;6.954;2023-09-18T07:37:12;21.10;1.00
6270;DHT22;3168;51.684;6.954;2023-09-18T07:39:38;21.00;1.00
6270;DHT22;3168;51.684;6.954;2023-09-18T07:42:04;21.10;1.00
6270;DHT22;3168;51.684;6.954;2023-09-18T07:44:30;21.20;1.00
6270;DHT22;3168;51.684;6.954;2023-09-18T07:46:57;21.10;1.00
6270;DHT22;3168;51.684;6.954;2023-09-18T07:49:22;21.10;1.00
6270;DHT22;3168;51.684;6.954;2023-09-18T07:51:48;21.10;1.00
6270;DHT22;3168;51.684;6.954;2023-09-18T07:54:14;21.20;1.00
6270;DHT22;3168;51.684;6.954;2023-09-18T07:56:40;21.20;1.00
6270;DHT22;3168;51.684;6.954;2023-09-18T07:59:06;21.10;1.00
6270;DHT22;3168;51.684;6.954;2023-09-18T08:01:31;21.10;1.00
6270;DHT22;3168;51.684;6.954;2023-09-18T08:03:57;21.10;1.00
6270;DHT22;3168;51.684;6.954;2023-09-18T08:06:23;21.20;1.00
6270;DHT22;3168;51.684;6.954;2023-09-18T08:08:49;21.20;1.00
6270;DHT22;3168;51.684;6.954;2023-09-18T08:11:14;21.10;1.00
6270;DHT22;3168;51.684;6.954;2023-09-18T08:13:40;21.20;1.00
6270;DHT22;3168;51.684;6.954;2023-09-18T08:16:06;21.20;1.00
6270;DHT22;3168;51.684;6.954;2023-09-18T08:18:33;21.20;1.00
6270;DHT22;3168;51.684;6.954;2023-09-18T08:20:59;21.20;1.00
6270;DHT22;3168;51.684;6.954;2023-09-18T08:23:25;21.40;1.00
6270;DHT22;3168;51.684;6.954;2023-09-18T08:25:51;21.30;1.00
6270;DHT22;3168;51.684;6.954;2023-09-18T08:28:17;21.40;1.00
6270;DHT22;3168;51.684;6.954;2023-09-18T08:30:43;21.30;1.00
6270;DHT22;3168;51.684;6.954;2023-09-18T08:33:10;21.30;1.00
6270;DHT22;3168;51.684;6.954;2023-09-18T08:35:35;21.30;1.00
6270;DHT22;3168;51.684;6.954;2023-09-18T08:38:01;21.30;1.00
6270;DHT22;3168;51.684;6.954;2023-09-18T08:40:27;21.30;1.00
6270;DHT22;3168;51.684;6.954;2023-09-18T08:42:53;21.30;1.00
6270;DHT22;3168;51.684;6.954;2023-09-18T08:45:27;21.30;1.00
6270;DHT22;3168;51.684;6.954;2023-09-18T08:47:54;21.30;1.00
6270;DHT22;3168;51.684;6.954;2023-09-18T08:50:20;21.30;1.00
6270;DHT22;3168;51.684;6.954;2023-09-18T08:52:47;21.40;1.00
6270;DHT22;3168;51.684;6.954;2023-09-18T08:55:12;21.50;1.00
6270;DHT22;3168;51.684;6.954;2023-09-18T08:57:38;21.50;1.00
6270;DHT22;3168;51.684;6.954;2023-09-18T09:00:06;21.50;1.00
6270;DHT22;3168;51.684;6.954;2023-09-18T09:02:33;21.50;1.00
6270;DHT22;3168;51.684;6.954;2023-09-18T09:04:58;21.50;1.00
6270;DHT22;3168;51.684;6.954;2023-09-18T09:07:25;21.40;1.00
6270;DHT22;3168;51.684;6.954;2023-09-18T09:09:51;21.60;1.00
6270;DHT22;3168;51.684;6.954;2023-09-18T09:12:45;21.60;1.00
6270;DHT22;3168;51.684;6.954;2023-09-18T09:14:55;21.60;1.00
6270;DHT22;3168;51.684;6.954;2023-09-18T09:17:09;21.70;1.00
6270;DHT22;3168;51.684;6.954;2023-09-18T09:19:35;21.70;1.00
6270;DHT22;3168;51.684;6.954;2023-09-18T09:22:00;21.70;1.00
6270;DHT22;3168;51.684;6.954;2023-09-18T09:24:37;21.70;1.00
6270;DHT22;3168;51.684;6.954;2023-09-18T09:27:02;21.70;1.00
6270;DHT22;3168;51.684;6.954;2023-09-18T09:29:29;22.00;1.00
6270;DHT22;3168;51.684;6.954;2023-09-18T09:31:55;22.00;1.00
6270;DHT22;3168;51.684;6.954;2023-09-18T09:34:24;22.20;1.00
6270;DHT22;3168;51.684;6.954;2023-09-18T09:36:53;22.40;1.00
6270;DHT22;3168;51.684;6.954;2023-09-18T09:39:18;22.20;1.00
6270;DHT22;3168;51.684;6.954;2023-09-18T09:41:45;22.20;1.00
6270;DHT22;3168;51.684;6.954;2023-09-18T09:44:11;22.00;1.00
6270;DHT22;3168;51.684;6.954;2023-09-18T09:46:37;22.00;1.00
6270;DHT22;3168;51.684;6.954;2023-09-18T09:49:04;22.20;1.00
6270;DHT22;3168;51.684;6.954;2023-09-18T09:51:29;22.10;1.00
6270;DHT22;3168;51.684;6.954;2023-09-18T09:53:55;22.00;1.00
6270;DHT22;3168;51.684;6.954;2023-09-18T09:56:20;21.90;1.00
6270;DHT22;3168;51.684;6.954;2023-09-18T09:58:59;22.20;1.00
6270;DHT22;3168;51.684;6.954;2023-09-18T10:01:12;22.20;1.00
6270;DHT22;3168;51.684;6.954;2023-09-18T10:03:38;22.20;1.00
6270;DHT22;3168;51.684;6.954;2023-09-18T10:06:04;22.10;1.00
6270;DHT22;3168;51.684;6.954;2023-09-18T10:08:30;22.10;1.00
6270;DHT22;3168;51.684;6.954;2023-09-18T10:10:56;22.00;1.00
6270;DHT22;3168;51.684;6.954;2023-09-18T10:13:46;22.20;1.00
6270;DHT22;3168;51.684;6.954;2023-09-18T10:16:08;22.20;1.00
6270;DHT22;3168;51.684;6.954;2023-09-18T10:18:50;22.30;1.00
6270;DHT22;3168;51.684;6.954;2023-09-18T10:21:14;22.30;1.00
6270;DHT22;3168;51.684;6.954;2023-09-18T10:23:43;22.20;1.00
6270;DHT22;3168;51.684;6.954;2023-09-18T10:26:04;22.30;1.00
6270;DHT22;3168;51.684;6.954;2023-09-18T10:28:30;22.50;1.00
6270;DHT22;3168;51.684;6.954;2023-09-18T10:30:57;22.50;1.00
6270;DHT22;3168;51.684;6.954;2023-09-18T10:33:25;22.60;1.00
6270;DHT22;3168;51.684;6.954;2023-09-18T10:35:53;22.50;1.00
6270;DHT22;3168;51.684;6.954;2023-09-18T10:38:18;22.80;1.00
6270;DHT22;3168;51.684;6.954;2023-09-18T10:40:44;23.00;1.00
6270;DHT22;3168;51.684;6.954;2023-09-18T10:43:10;22.90;1.00
6270;DHT22;3168;51.684;6.954;2023-09-18T10:45:36;23.00;1.00
6270;DHT22;3168;51.684;6.954;2023-09-18T10:48:02;23.10;1.00
6270;DHT22;3168;51.684;6.954;2023-09-18T10:50:28;23.10;1.00
6270;DHT22;3168;51.684;6.954;2023-09-18T10:52:56;23.20;1.00
6270;DHT22;3168;51.684;6.954;2023-09-18T10:55:21;23.20;1.00
6270;DHT22;3168;51.684;6.954;2023-09-18T10:57:52;23.30;1.00
6270;DHT22;3168;51.684;6.954;2023-09-18T11:00:17;23.40;1.00
6270;DHT22;3168;51.684;6.954;2023-09-18T11:02:44;23.50;1.00
6270;DHT22;3168;51.684;6.954;2023-09-18T11:05:09;23.40;1.00
6270;DHT22;3168;51.684;6.954;2023-09-18T11:07:35;23.50;1.00
6270;DHT22;3168;51.684;6.954;2023-09-18T11:10:21;23.40;1.00
6270;DHT22;3168;51.684;6.954;2023-09-18T11:12:42;23.30;1.00
6270;DHT22;3168;51.684;6.954;2023-09-18T11:15:07;23.20;1.00
6270;DHT22;3168;51.684;6.954;2023-09-18T11:17:38;23.30;1.00
6270;DHT22;3168;51.684;6.954;2023-09-18T11:20:08;23.70;1.00
6270;DHT22;3168;51.684;6.954;2023-09-18T11:22:35;23.60;1.00
6270;DHT22;3168;51.684;6.954;2023-09-18T11:27:51;23.30;1.00
6270;DHT22;3168;51.684;6.954;2023-09-18T11:30:10;23.30;1.00
6270;DHT22;3168;51.684;6.954;2023-09-18T11:32:37;23.20;1.00
6270;DHT22;3168;51.684;6.954;2023-09-18T11:35:07;23.30;1.00
6270;DHT22;3168;51.684;6.954;2023-09-18T11:37:32;23.30;1.00
6270;DHT22;3168;51.684;6.954;2023-09-18T11:39:58;23.30;1.00
6270;DHT22;3168;51.684;6.954;2023-09-18T11:42:24;23.30;1.00
6270;DHT22;3168;51.684;6.954;2023-09-18T11:44:50;23.40;1.00
6270;DHT22;3168;51.684;6.954;2023-09-18T11:47:16;23.40;1.00
6270;DHT22;3168;51.684;6.954;2023-09-18T11:49:45;23.50;1.00
6270;DHT22;3168;51.684;6.954;2023-09-18T11:52:09;23.40;1.00
6270;DHT22;3168;51.684;6.954;2023-09-18T11:54:35;23.60;1.00
6270;DHT22;3168;51.684;6.954;2023-09-18T11:57:04;23.60;1.00
6270;DHT22;3168;51.684;6.954;2023-09-18T11:59:34;23.80;1.00
6270;DHT22;3168;51.684;6.954;2023-09-18T12:01:59;24.00;1.00
6270;DHT22;3168;51.684;6.954;2023-09-18T12:04:27;23.90;1.00
6270;DHT22;3168;51.684;6.954;2023-09-18T12:06:53;24.00;1.00
6270;DHT22;3168;51.684;6.954;2023-09-18T12:09:18;24.20;1.00
6270;DHT22;3168;51.684;6.954;2023-09-18T12:11:44;24.20;1.00
6270;DHT22;3168;51.684;6.954;2023-09-18T12:14:11;24.00;1.00
6270;DHT22;3168;51.684;6.954;2023-09-18T12:16:38;24.00;1.00
6270;DHT22;3168;51.684;6.954;2023-09-18T12:19:04;24.10;1.00
6270;DHT22;3168;51.684;6.954;2023-09-18T12:21:30;24.10;1.00
6270;DHT22;3168;51.684;6.954;2023-09-18T12:23:56;23.90;1.00
6270;DHT22;3168;51.684;6.954;2023-09-18T12:26:22;24.10;1.00
6270;DHT22;3168;51.684;6.954;2023-09-18T12:28:48;24.10;1.00
6270;DHT22;3168;51.684;6.954;2023-09-18T12:31:14;24.10;1.00
6270;DHT22;3168;51.684;6.954;2023-09-18T12:33:40;23.90;1.00
6270;DHT22;3168;51.684;6.954;2023-09-18T12:36:06;24.20;1.00
6270;DHT22;3168;51.684;6.954;2023-09-18T12:38:31;24.20;1.00
6270;DHT22;3168;51.684;6.954;2023-09-18T12:40:57;24.20;1.00
6270;DHT22;3168;51.684;6.954;2023-09-18T12:43:23;24.30;1.00
6270;DHT22;3168;51.684;6.954;2023-09-18T12:45:49;24.40;1.00
6270;DHT22;3168;51.684;6.954;2023-09-18T12:48:15;24.40;1.00
6270;DHT22;3168;51.684;6.954;2023-09-18T12:50:41;24.50;1.00
6270;DHT22;3168;51.684;6.954;2023-09-18T12:53:09;24.60;1.00
6270;DHT22;3168;51.684;6.954;2023-09-18T12:55:35;24.70;1.00
6270;DHT22;3168;51.684;6.954;2023-09-18T12:58:00;24.80;1.00
6270;DHT22;3168;51.684;6.954;2023-09-18T13:00:26;24.60;99.90
6270;DHT22;3168;51.684;6.954;2023-09-18T13:02:52;24.70;99.90
6270;DHT22;3168;51.684;6.954;2023-09-18T13:05:19;24.70;99.90
6270;DHT22;3168;51.684;6.954;2023-09-18T13:07:45;24.70;99.90
6270;DHT22;3168;51.684;6.954;2023-09-18T13:10:11;24.70;99.90
6270;DHT22;3168;51.684;6.954;2023-09-18T13:12:42;24.80;99.90
6270;DHT22;3168;51.684;6.954;2023-09-18T13:15:08;24.90;99.90
6270;DHT22;3168;51.684;6.954;2023-09-18T13:17:38;24.80;99.90
6270;DHT22;3168;51.684;6.954;2023-09-18T13:20:08;24.70;99.90
6270;DHT22;3168;51.684;6.954;2023-09-18T13:22:31;24.90;99.90
6270;DHT22;3168;51.684;6.954;2023-09-18T13:24:57;24.70;99.90
6270;DHT22;3168;51.684;6.954;2023-09-18T13:27:23;24.70;99.90
6270;DHT22;3168;51.684;6.954;2023-09-18T13:29:49;24.50;99.90
6270;DHT22;3168;51.684;6.954;2023-09-18T13:32:14;24.30;99.90
6270;DHT22;3168;51.684;6.954;2023-09-18T13:34:40;24.10;99.90
6270;DHT22;3168;51.684;6.954;2023-09-18T13:37:06;24.20;99.90
6270;DHT22;3168;51.684;6.954;2023-09-18T13:39:32;24.10;99.90
6270;DHT22;3168;51.684;6.954;2023-09-18T13:41:58;24.10;99.90
6270;DHT22;3168;51.684;6.954;2023-09-18T13:44:23;24.00;99.90
6270;DHT22;3168;51.684;6.954;2023-09-18T13:46:49;24.30;99.90
6270;DHT22;3168;51.684;6.954;2023-09-18T13:49:15;24.70;99.90
6270;DHT22;3168;51.684;6.954;2023-09-18T13:51:41;24.90;99.90
6270;DHT22;3168;51.684;6.954;2023-09-18T13:54:06;24.80;99.90
6270;DHT22;3168;51.684;6.954;2023-09-18T13:56:32;24.90;99.90
6270;DHT22;3168;51.684;6.954;2023-09-18T13:58:58;25.00;99.90
6270;DHT22;3168;51.684;6.954;2023-09-18T14:01:24;24.80;99.90
6270;DHT22;3168;51.684;6.954;2023-09-18T14:03:51;24.80;99.90
6270;DHT22;3168;51.684;6.954;2023-09-18T14:06:17;24.90;99.90
6270;DHT22;3168;51.684;6.954;2023-09-18T14:08:43;25.00;99.90
6270;DHT22;3168;51.684;6.954;2023-09-18T14:11:09;24.80;99.90
6270;DHT22;3168;51.684;6.954;2023-09-18T14:13:35;24.90;99.90
6270;DHT22;3168;51.684;6.954;2023-09-18T14:16:00;24.90;99.90
6270;DHT22;3168;51.684;6.954;2023-09-18T14:18:26;25.00;99.90
6270;DHT22;3168;51.684;6.954;2023-09-18T14:20:52;24.70;99.90
6270;DHT22;3168;51.684;6.954;2023-09-18T14:23:18;24.50;99.90
6270;DHT22;3168;51.684;6.954;2023-09-18T14:25:44;24.60;99.90
6270;DHT22;3168;51.684;6.954;2023-09-18T14:28:09;24.80;99.90
6270;DHT22;3168;51.684;6.954;2023-09-18T14:30:35;24.60;99.90
6270;DHT22;3168;51.684;6.954;2023-09-18T14:33:01;24.60;99.90
6270;DHT22;3168;51.684;6.954;2023-09-18T14:35:27;25.00;99.90
6270;DHT22;3168;51.684;6.954;2023-09-18T14:37:53;25.40;99.90
6270;DHT22;3168;51.684;6.954;2023-09-18T14:40:20;25.80;99.90
6270;DHT22;3168;51.684;6.954;2023-09-18T14:42:46;25.80;99.90
6270;DHT22;3168;51.684;6.954;2023-09-18T14:45:12;25.70;99.90
6270;DHT22;3168;51.684;6.954;2023-09-18T14:47:38;25.50;99.90
6270;DHT22;3168;51.684;6.954;2023-09-18T14:50:05;25.70;99.90
6270;DHT22;3168;51.684;6.954;2023-09-18T14:52:30;26.10;99.90
6270;DHT22;3168;51.684;6.954;2023-09-18T14:54:56;26.60;99.90
6270;DHT22;3168;51.684;6.954;2023-09-18T14:57:22;26.40;99.90
6270;DHT22;3168;51.684;6.954;2023-09-18T14:59:49;26.40;99.90
6270;DHT22;3168;51.684;6.954;2023-09-18T15:02:15;26.30;99.90
6270;DHT22;3168;51.684;6.954;2023-09-18T15:04:41;26.30;99.90
6270;DHT22;3168;51.684;6.954;2023-09-18T15:07:06;26.40;99.90
6270;DHT22;3168;51.684;6.954;2023-09-18T15:09:33;26.80;99.90
6270;DHT22;3168;51.684;6.954;2023-09-18T15:11:59;26.80;99.90
6270;DHT22;3168;51.684;6.954;2023-09-18T15:14:25;27.10;99.90
6270;DHT22;3168;51.684;6.954;2023-09-18T15:16:51;27.00;99.90
6270;DHT22;3168;51.684;6.954;2023-09-18T15:19:17;27.10;99.90
6270;DHT22;3168;51.684;6.954;2023-09-18T15:21:43;26.90;99.90
6270;DHT22;3168;51.684;6.954;2023-09-18T15:24:09;27.00;99.90
6270;DHT22;3168;51.684;6.954;2023-09-18T15:26:34;26.80;99.90
6270;DHT22;3168;51.684;6.954;2023-09-18T15:29:00;27.20;99.90
6270;DHT22;3168;51.684;6.954;2023-09-18T15:31:26;27.20;99.90
6270;DHT22;3168;51.684;6.954;2023-09-18T15:33:52;26.80;99.90
6270;DHT22;3168;51.684;6.954;2023-09-18T15:36:19;26.40;99.90
6270;DHT22;3168;51.684;6.954;2023-09-18T15:38:44;26.40;99.90
6270;DHT22;3168;51.684;6.954;2023-09-18T15:41:10;26.30;99.90
6270;DHT22;3168;51.684;6.954;2023-09-18T15:43:36;26.30;99.90
6270;DHT22;3168;51.684;6.954;2023-09-18T15:46:02;25.90;99.90
6270;DHT22;3168;51.684;6.954;2023-09-18T15:48:28;25.60;99.90
6270;DHT22;3168;51.684;6.954;2023-09-18T15:50:53;25.20;99.90
6270;DHT22;3168;51.684;6.954;2023-09-18T15:53:20;24.90;99.90
6270;DHT22;3168;51.684;6.954;2023-09-18T15:55:46;24.80;99.90
6270;DHT22;3168;51.684;6.954;2023-09-18T15:58:12;24.80;99.90
6270;DHT22;3168;51.684;6.954;2023-09-18T16:00:37;24.70;99.90
6270;DHT22;3168;51.684;6.954;2023-09-18T16:03:03;24.60;99.90
6270;DHT22;3168;51.684;6.954;2023-09-18T16:05:29;24.60;99.90
6270;DHT22;3168;51.684;6.954;2023-09-18T16:07:55;24.40;99.90
6270;DHT22;3168;51.684;6.954;2023-09-18T16:10:21;24.40;99.90